Terminal Aerodrome Forecast
Issued by NWS

Home | Current Version | Previous Version | Graphics & Text | Print | Product List | Glossary On
Versions: 1 2 3 4 5 6 7 8 9 10 11 12 13 14 15 16
309
FTUS43 KOAX 152339
TAFCDR
TAF
KCDR 152339Z 1600/1624 01014KT 3SM -SN BKN025 OVC035
     FM160200 35007KT P6SM BKN040
     FM160400 VRB05KT P6SM SCT090
     FM161600 24012KT P6SM SKC=

USA.gov is the U.S. government's official web portal to all federal, state and local government web resources and services.